createdAt,value
2022-10-02T00:00:23.802Z,2.13
2022-10-02T00:05:33.801Z,2.08
2022-10-02T00:10:42.230Z,2.38
2022-10-02T00:15:49.366Z,2.30
2022-10-02T00:21:02.070Z,2.00
2022-10-02T00:26:10.692Z,2.83
2022-10-02T00:31:29.643Z,2.83
2022-10-02T00:36:45.097Z,2.42
2022-10-02T00:42:30.597Z,2.17
2022-10-02T00:47:47.763Z,2.35
2022-10-02T00:53:04.453Z,2.75
2022-10-02T00:58:23.730Z,2.83
2022-10-02T01:03:34.659Z,1.90
2022-10-02T01:08:38.851Z,3.03
2022-10-02T01:13:42.612Z,2.08
2022-10-02T01:18:48.282Z,2.22
2022-10-02T01:24:01.621Z,2.45
2022-10-02T01:29:07.246Z,2.53
2022-10-02T01:34:11.376Z,2.17
2022-10-02T01:39:15.300Z,2.50
2022-10-02T01:44:20.881Z,2.35
2022-10-02T01:49:48.660Z,2.38
2022-10-02T01:55:22.916Z,1.92
2022-10-02T02:00:33.205Z,2.80
2022-10-02T02:05:48.300Z,2.28
2022-10-02T02:11:04.060Z,2.15
2022-10-02T02:16:14.886Z,2.92
2022-10-02T02:21:24.850Z,2.47
2022-10-02T02:26:29.972Z,2.22
2022-10-02T02:31:39.115Z,2.67
2022-10-02T02:36:46.109Z,2.55
2022-10-02T02:41:53.784Z,2.45
2022-10-02T02:47:07.493Z,2.15
2022-10-02T02:52:16.093Z,1.92
2022-10-02T02:57:28.634Z,1.33
2022-10-02T03:02:33.803Z,1.10
2022-10-02T03:07:37.526Z,1.50
2022-10-02T03:12:52.457Z,1.00
2022-10-02T03:18:10.087Z,0.85
2022-10-02T03:23:23.904Z,0.82
2022-10-02T03:28:54.552Z,1.58
2022-10-02T03:34:00.169Z,1.40
2022-10-02T03:39:24.246Z,1.20
2022-10-02T03:44:29.124Z,1.30
2022-10-02T03:49:34.845Z,1.35
2022-10-02T03:54:38.686Z,1.42
2022-10-02T03:59:47.833Z,1.70
2022-10-02T04:04:57.369Z,1.80
2022-10-02T04:10:15.376Z,2.00
2022-10-02T04:15:26.236Z,2.15
2022-10-02T04:20:37.869Z,2.50
2022-10-02T04:25:46.780Z,2.22
2022-10-02T04:30:53.534Z,1.98
2022-10-02T04:36:10.331Z,2.30
2022-10-02T04:41:31.800Z,2.42
2022-10-02T04:47:00.625Z,2.25
2022-10-02T04:52:25.858Z,2.35
2022-10-02T04:57:50.069Z,1.92
2022-10-02T05:03:16.138Z,2.40
2022-10-02T05:08:42.333Z,2.60
2022-10-02T05:14:28.252Z,2.53
2022-10-02T05:19:52.453Z,2.60
2022-10-02T05:25:15.398Z,3.03
2022-10-02T05:30:20.525Z,2.78
2022-10-02T05:35:40.419Z,2.45
2022-10-02T05:40:52.681Z,3.03
2022-10-02T05:45:59.892Z,2.60
2022-10-02T05:51:08.062Z,2.45
2022-10-02T05:56:22.067Z,2.70
2022-10-02T06:01:30.089Z,2.33
2022-10-02T06:06:39.600Z,1.90
2022-10-02T06:11:49.813Z,2.40
2022-10-02T06:16:58.821Z,2.10
2022-10-02T06:22:07.532Z,2.30
2022-10-02T06:27:19.002Z,2.05
2022-10-02T06:32:35.885Z,2.13
2022-10-02T06:37:55.139Z,2.15
2022-10-02T06:43:05.298Z,3.47
2022-10-02T06:48:22.588Z,2.60
2022-10-02T06:53:43.663Z,1.77
2022-10-02T06:59:06.453Z,1.88
2022-10-02T07:04:27.304Z,2.30
2022-10-02T07:09:59.578Z,2.33
2022-10-02T07:15:45.852Z,1.75
2022-10-02T07:21:01.230Z,2.00
2022-10-02T07:26:15.553Z,2.40
2022-10-02T07:31:30.446Z,2.33
2022-10-02T07:36:45.795Z,2.53
2022-10-02T07:42:17.019Z,2.00
2022-10-02T07:47:36.760Z,1.75
2022-10-02T07:52:51.108Z,1.75
2022-10-02T07:58:01.479Z,1.98
2022-10-02T08:03:13.424Z,2.50
2022-10-02T08:08:25.228Z,2.47
2022-10-02T08:13:33.014Z,1.90
2022-10-02T08:18:42.133Z,2.00
2022-10-02T08:23:50.708Z,1.98
2022-10-02T08:29:01.565Z,1.77
2022-10-02T08:34:17.644Z,1.60
2022-10-02T08:39:47.620Z,1.70
2022-10-02T08:45:19.207Z,1.40
2022-10-02T08:50:43.910Z,1.88
2022-10-02T08:56:20.349Z,1.70
2022-10-02T09:01:40.779Z,1.30
2022-10-02T09:07:31.366Z,2.15
2022-10-02T09:13:14.113Z,2.20
2022-10-02T09:18:27.201Z,2.25
2022-10-02T09:24:19.056Z,1.77
2022-10-02T09:30:00.990Z,2.05
2022-10-02T09:35:42.194Z,1.85
2022-10-02T09:41:15.674Z,1.90
2022-10-02T09:46:51.364Z,1.77
2022-10-02T09:52:18.825Z,2.15
2022-10-02T09:58:13.514Z,2.03
2022-10-02T10:04:02.005Z,2.47
2022-10-02T10:09:25.514Z,1.63
2022-10-02T10:15:09.988Z,2.10
2022-10-02T10:20:54.342Z,1.77
2022-10-02T10:26:17.953Z,1.80
2022-10-02T10:32:08.098Z,2.55
2022-10-02T10:37:43.897Z,1.90
2022-10-02T10:43:22.086Z,1.70
2022-10-02T10:48:49.350Z,1.75
2022-10-02T10:54:25.438Z,1.88
2022-10-02T11:00:03.433Z,1.67
2022-10-02T11:05:25.942Z,1.60
2022-10-02T11:10:45.121Z,2.17
2022-10-02T11:16:14.917Z,2.20
2022-10-02T11:21:39.902Z,2.40
2022-10-02T11:27:02.342Z,1.85
2022-10-02T11:32:31.740Z,2.25
2022-10-02T11:37:50.829Z,2.17
2022-10-02T11:43:22.649Z,2.72
2022-10-02T11:48:49.794Z,2.25
2022-10-02T11:54:20.712Z,2.10
2022-10-02T11:59:52.361Z,2.05
2022-10-02T12:05:11.415Z,3.13
2022-10-02T12:10:36.121Z,2.47
2022-10-02T12:15:50.875Z,1.80
2022-10-02T12:21:23.360Z,2.50
2022-10-02T12:27:04.163Z,2.67
2022-10-02T12:32:20.451Z,2.47
2022-10-02T12:37:31.722Z,1.08
2022-10-02T12:43:20.754Z,1.48
2022-10-02T12:48:38.840Z,0.98
2022-10-02T12:54:10.283Z,1.40
2022-10-02T12:59:23.860Z,1.02
2022-10-02T13:05:12.667Z,1.40
2022-10-02T13:10:23.016Z,0.82
2022-10-02T13:15:37.104Z,2.53
2022-10-02T13:20:53.924Z,0.70
2022-10-02T13:31:16.976Z,1.00
2022-10-02T13:36:35.168Z,1.05
2022-10-02T13:41:58.431Z,1.08
2022-10-02T13:47:23.474Z,0.77
2022-10-02T13:52:34.564Z,1.00
2022-10-02T13:57:55.922Z,1.27
2022-10-02T14:03:09.875Z,0.93
2022-10-02T14:08:32.099Z,0.95
2022-10-02T14:13:49.362Z,0.88
2022-10-02T14:19:22.353Z,1.00
2022-10-02T14:25:03.898Z,0.80
2022-10-02T14:30:13.138Z,0.90
2022-10-02T14:35:32.024Z,0.80
2022-10-02T14:40:47.004Z,0.80
2022-10-02T14:46:18.995Z,1.02
2022-10-02T14:51:36.725Z,1.38
2022-10-02T14:57:16.215Z,1.33
2022-10-02T15:02:34.405Z,0.77
2022-10-02T15:07:40.251Z,0.80
2022-10-02T15:12:51.404Z,0.88
2022-10-02T15:18:20.122Z,0.63
2022-10-02T15:23:42.578Z,0.63
2022-10-02T15:28:57.854Z,0.90
2022-10-02T15:34:13.788Z,0.65
2022-10-02T15:39:39.516Z,0.70
2022-10-02T15:45:20.578Z,0.75
2022-10-02T15:50:42.462Z,0.55
2022-10-02T15:55:51.213Z,0.70
2022-10-02T16:01:18.652Z,0.98
2022-10-02T16:06:44.278Z,1.33
2022-10-02T16:12:31.276Z,0.88
2022-10-02T16:18:01.337Z,1.23
2022-10-02T16:23:26.101Z,0.90
2022-10-02T16:28:58.034Z,0.70
2022-10-02T16:34:14.532Z,0.80
2022-10-02T16:39:31.766Z,0.95
2022-10-02T16:45:05.058Z,1.25
2022-10-02T16:50:17.980Z,1.35
2022-10-02T16:55:29.679Z,1.10
2022-10-02T17:00:39.136Z,1.05
2022-10-02T17:05:50.419Z,0.90
2022-10-02T17:11:19.867Z,1.00
2022-10-02T17:16:29.728Z,1.45
2022-10-02T17:21:47.158Z,1.55
2022-10-02T17:26:55.764Z,0.98
2022-10-02T17:32:01.499Z,1.10
2022-10-02T17:37:36.604Z,1.25
2022-10-02T17:42:48.002Z,1.58
2022-10-02T17:48:15.571Z,1.10
2022-10-02T17:54:01.551Z,1.10
2022-10-02T17:59:38.349Z,1.00
2022-10-02T18:10:04.586Z,1.52
2022-10-02T18:15:46.257Z,2.47
2022-10-02T18:20:58.806Z,2.20
2022-10-02T18:26:21.378Z,1.27
2022-10-02T18:31:55.272Z,1.60
2022-10-02T18:37:17.705Z,2.05
2022-10-02T18:42:40.952Z,1.70
2022-10-02T18:47:55.781Z,1.83
2022-10-02T18:53:13.165Z,1.20
2022-10-02T18:58:31.720Z,1.52
2022-10-02T19:03:44.632Z,1.33
2022-10-02T19:09:14.222Z,1.60
2022-10-02T19:14:34.902Z,2.33
2022-10-02T19:19:39.960Z,1.65
2022-10-02T19:24:47.617Z,2.33
2022-10-02T19:29:56.449Z,1.70
2022-10-02T19:35:08.117Z,2.28
2022-10-02T19:40:17.306Z,2.08
2022-10-02T19:45:26.878Z,1.55
2022-10-02T19:50:41.002Z,1.73
2022-10-02T19:55:47.460Z,1.50
2022-10-02T20:00:54.238Z,1.20
2022-10-02T20:06:01.335Z,1.73
2022-10-02T20:16:36.094Z,1.45
2022-10-02T20:21:42.854Z,1.42
2022-10-02T20:26:49.328Z,1.60
2022-10-02T20:31:59.539Z,1.52
2022-10-02T20:37:06.590Z,1.00
2022-10-02T20:42:16.633Z,1.83
2022-10-02T20:47:55.216Z,1.98
2022-10-02T20:53:43.834Z,1.50
2022-10-02T20:59:22.496Z,1.60
2022-10-02T21:05:03.006Z,1.75
2022-10-02T21:10:54.692Z,1.50
2022-10-02T21:16:42.925Z,2.28
2022-10-02T21:22:30.141Z,2.05
2022-10-02T21:28:09.225Z,2.05
2022-10-02T21:33:16.090Z,2.05
2022-10-02T21:38:52.068Z,2.33
2022-10-02T21:44:37.206Z,1.67
2022-10-02T21:50:35.194Z,1.92
2022-10-02T21:56:28.557Z,2.00
2022-10-02T22:02:16.528Z,2.08
2022-10-02T22:07:24.214Z,2.42
2022-10-02T22:12:44.953Z,2.47
2022-10-02T22:17:57.909Z,2.40
2022-10-02T22:23:15.516Z,2.40
2022-10-02T22:28:32.421Z,2.40
2022-10-02T22:33:55.086Z,2.40
2022-10-02T22:39:08.542Z,3.03
2022-10-02T22:44:24.584Z,2.63
2022-10-02T22:49:34.601Z,2.17
2022-10-02T22:54:46.681Z,2.30
2022-10-02T22:59:55.251Z,2.20
2022-10-02T23:05:06.408Z,2.30
2022-10-02T23:10:26.127Z,2.10
2022-10-02T23:15:41.958Z,1.75
2022-10-02T23:20:53.121Z,2.28
2022-10-02T23:26:05.114Z,2.33
2022-10-02T23:31:18.277Z,1.77
2022-10-02T23:36:27.407Z,2.00
2022-10-02T23:41:40.057Z,1.90
2022-10-02T23:47:00.245Z,2.00
2022-10-02T23:52:20.608Z,2.35
2022-10-02T23:57:50.503Z,1.85
